Terminal Aerodrome Forecast
Issued by NWS Shreveport, LA

Home | Current Version | Previous Version | Text Only | Print | Product List | Glossary On
Versions: 1 2 3 4 5 6 7 8 9 10 11 12 13 14 15 16 17 18 19 20
000
FTUS44 KSHV 012100 AAA
TAFELD
TAF AMD
KELD 012133Z 0122/0218 14010KT 6SM -RA FEW035 SCT050 BKN080
     FM012200 17007KT P6SM FEW050 SCT080
     FM020100 17008KT P6SM FEW060
     FM021000 16006KT P6SM BKN008=

USA.gov is the U.S. government's official web portal to all federal, state and local government web resources and services.